createdAt,value
2022-08-04T00:01:09.654Z,24.44
2022-08-04T00:03:45.797Z,24.41
2022-08-04T00:06:26.191Z,24.38
2022-08-04T00:08:59.268Z,24.34
2022-08-04T00:11:31.486Z,24.32
2022-08-04T00:14:04.760Z,24.30
2022-08-04T00:16:38.063Z,24.28
2022-08-04T00:19:13.105Z,24.25
2022-08-04T00:21:47.398Z,24.24
2022-08-04T00:24:17.266Z,24.20
2022-08-04T00:26:46.675Z,24.18
2022-08-04T00:29:16.823Z,24.16
2022-08-04T00:31:57.001Z,24.13
2022-08-04T00:34:28.050Z,24.10
2022-08-04T00:36:58.605Z,24.05
2022-08-04T00:39:28.011Z,24.02
2022-08-04T00:42:19.122Z,23.98
2022-08-04T00:45:13.188Z,23.96
2022-08-04T00:47:59.193Z,23.92
2022-08-04T00:50:42.242Z,23.87
2022-08-04T00:53:17.876Z,23.84
2022-08-04T00:56:22.110Z,23.81
2022-08-04T00:59:04.816Z,23.77
2022-08-04T01:02:02.081Z,23.76
2022-08-04T01:04:47.036Z,23.70
2022-08-04T01:07:31.588Z,23.69
2022-08-04T01:10:07.824Z,23.65
2022-08-04T01:13:00.093Z,23.63
2022-08-04T01:15:59.357Z,23.61
2022-08-04T01:18:35.888Z,23.58
2022-08-04T01:21:41.167Z,23.58
2022-08-04T01:24:27.357Z,23.54
2022-08-04T01:27:04.052Z,23.52
2022-08-04T01:29:46.474Z,23.51
2022-08-04T01:32:25.750Z,23.49
2022-08-04T01:35:02.423Z,23.47
2022-08-04T01:37:50.644Z,23.45
2022-08-04T01:40:20.424Z,23.41
2022-08-04T01:42:53.830Z,23.40
2022-08-04T01:45:26.464Z,23.39
2022-08-04T01:47:58.820Z,23.37
2022-08-04T01:50:28.487Z,23.35
2022-08-04T01:52:57.644Z,23.34
2022-08-04T01:55:55.262Z,23.31
2022-08-04T01:58:20.995Z,23.29
2022-08-04T02:00:58.405Z,23.28
2022-08-04T02:04:20.113Z,23.26
2022-08-04T02:06:27.926Z,23.24
2022-08-04T02:09:06.563Z,23.24
2022-08-04T02:11:35.630Z,23.22
2022-08-04T02:14:36.408Z,23.20
2022-08-04T02:17:12.264Z,23.18
2022-08-04T02:19:56.582Z,23.15
2022-08-04T02:22:28.356Z,23.14
2022-08-04T02:25:02.172Z,23.12
2022-08-04T02:28:00.577Z,23.11
2022-08-04T02:30:41.719Z,23.09
2022-08-04T02:33:18.390Z,23.08
2022-08-04T02:35:47.747Z,23.07
2022-08-04T02:38:32.667Z,23.04
2022-08-04T02:41:03.086Z,23.04
2022-08-04T02:43:51.981Z,23.05
2022-08-04T02:46:23.125Z,23.03
2022-08-04T02:48:54.759Z,23.04
2022-08-04T02:51:30.023Z,23.02
2022-08-04T02:54:00.084Z,23.01
2022-08-04T02:56:31.493Z,23.02
2022-08-04T02:59:03.039Z,23.04
2022-08-04T03:01:32.126Z,23.03
2022-08-04T03:04:24.721Z,23.07
2022-08-04T03:07:25.685Z,23.05
2022-08-04T03:10:31.424Z,23.07
2022-08-04T03:13:29.117Z,23.09
2022-08-04T03:16:04.689Z,23.08
2022-08-04T03:19:06.831Z,23.12
2022-08-04T03:22:01.899Z,23.16
2022-08-04T03:25:21.095Z,23.22
2022-08-04T03:28:19.536Z,23.22
2022-08-04T03:31:07.643Z,23.19
2022-08-04T03:33:53.143Z,23.24
2022-08-04T03:36:54.514Z,23.27
2022-08-04T03:40:16.422Z,23.28
2022-08-04T03:43:07.005Z,23.23
2022-08-04T03:46:25.684Z,23.30
2022-08-04T03:49:34.044Z,23.33
2022-08-04T03:52:29.388Z,23.37
2022-08-04T03:55:39.143Z,23.44
2022-08-04T03:58:44.411Z,23.50
2022-08-04T04:02:01.325Z,23.57
2022-08-04T04:04:48.033Z,23.63
2022-08-04T04:07:39.817Z,23.69
2022-08-04T04:10:23.337Z,23.74
2022-08-04T04:13:29.712Z,23.78
2022-08-04T04:16:21.632Z,23.78
2022-08-04T04:19:23.909Z,23.80
2022-08-04T04:22:23.601Z,23.79
2022-08-04T04:25:12.684Z,23.79
2022-08-04T04:28:46.489Z,23.79
2022-08-04T04:30:58.737Z,23.77
2022-08-04T04:33:46.843Z,23.77
2022-08-04T04:36:26.489Z,23.76
2022-08-04T04:39:05.461Z,23.76
2022-08-04T04:41:57.025Z,23.77
2022-08-04T04:44:43.524Z,23.77
2022-08-04T04:47:43.371Z,23.77
2022-08-04T04:50:15.970Z,23.77
2022-08-04T04:52:50.946Z,23.80
2022-08-04T04:55:22.499Z,23.82
2022-08-04T04:57:55.349Z,23.86
2022-08-04T05:00:26.144Z,23.90
2022-08-04T05:03:27.687Z,23.97
2022-08-04T05:06:11.460Z,24.01
2022-08-04T05:09:19.327Z,24.07
2022-08-04T05:14:32.501Z,24.14
2022-08-04T05:15:30.489Z,24.19
2022-08-04T05:18:02.322Z,24.25
2022-08-04T05:20:36.833Z,24.32
2022-08-04T05:23:12.221Z,24.38
2022-08-04T05:25:58.633Z,24.47
2022-08-04T05:28:34.631Z,24.53
2022-08-04T05:31:20.236Z,24.61
2022-08-04T05:33:54.540Z,24.68
2022-08-04T05:36:40.507Z,24.76
2022-08-04T05:39:15.546Z,24.83
2022-08-04T05:41:48.077Z,24.90
2022-08-04T05:44:25.956Z,24.96
2022-08-04T05:46:57.847Z,25.03
2022-08-04T05:49:29.649Z,25.08
2022-08-04T05:52:02.095Z,25.16
2022-08-04T05:54:33.446Z,25.22
2022-08-04T05:57:04.702Z,25.28
2022-08-04T05:59:35.353Z,25.37
2022-08-04T06:02:06.046Z,25.43
2022-08-04T06:04:39.608Z,25.50
2022-08-04T06:07:09.253Z,25.58
2022-08-04T06:09:38.291Z,25.64
2022-08-04T06:12:10.384Z,25.71
2022-08-04T06:14:45.806Z,25.77
2022-08-04T06:18:33.434Z,25.82
2022-08-04T06:20:21.954Z,25.89
2022-08-04T06:22:55.736Z,25.97
2022-08-04T06:25:29.088Z,26.03
2022-08-04T06:27:58.829Z,26.10
2022-08-04T06:30:28.556Z,26.17
2022-08-04T06:33:03.814Z,26.25
2022-08-04T06:35:34.042Z,26.31
2022-08-04T06:38:04.126Z,26.38
2022-08-04T06:40:34.649Z,26.44
2022-08-04T06:43:06.180Z,26.54
2022-08-04T06:45:37.190Z,26.59
2022-08-04T06:48:08.580Z,26.67
2022-08-04T06:51:29.756Z,26.74
2022-08-04T06:53:27.533Z,26.80
2022-08-04T06:55:58.250Z,26.87
2022-08-04T06:58:28.224Z,26.93
2022-08-04T07:01:02.034Z,27.01
2022-08-04T07:03:33.562Z,27.07
2022-08-04T07:06:05.847Z,27.14
2022-08-04T07:08:42.937Z,27.23
2022-08-04T07:11:11.896Z,27.28
2022-08-04T07:13:45.214Z,27.34
2022-08-04T07:16:16.109Z,27.40
2022-08-04T07:18:46.159Z,27.46
2022-08-04T07:21:22.153Z,27.53
2022-08-04T07:23:51.235Z,27.58
2022-08-04T07:26:20.067Z,27.63
2022-08-04T07:28:48.767Z,27.70
2022-08-04T07:31:33.511Z,27.80
2022-08-04T07:34:17.224Z,27.87
2022-08-04T07:36:55.039Z,27.96
2022-08-04T07:39:28.970Z,28.05
2022-08-04T07:41:59.506Z,28.10
2022-08-04T07:44:32.089Z,28.14
2022-08-04T07:47:01.478Z,28.19
2022-08-04T07:49:54.669Z,28.24
2022-08-04T07:52:20.680Z,28.27
2022-08-04T07:54:50.757Z,28.34
2022-08-04T07:57:40.769Z,28.39
2022-08-04T08:00:10.896Z,28.43
2022-08-04T08:02:43.395Z,28.47
2022-08-04T08:05:16.977Z,28.53
2022-08-04T08:07:50.514Z,28.56
2022-08-04T08:10:22.818Z,28.60
2022-08-04T08:12:52.542Z,28.64
2022-08-04T08:15:21.846Z,28.68
2022-08-04T08:17:59.890Z,28.71
2022-08-04T08:20:34.207Z,28.77
2022-08-04T08:23:03.982Z,28.81
2022-08-04T08:25:33.880Z,28.86
2022-08-04T08:28:04.941Z,28.90
2022-08-04T08:30:34.362Z,28.94
2022-08-04T08:33:06.265Z,28.99
2022-08-04T08:35:54.066Z,29.05
2022-08-04T08:38:40.228Z,29.13
2022-08-04T08:41:37.622Z,29.19
2022-08-04T08:44:30.156Z,29.23
2022-08-04T08:47:21.293Z,29.25
2022-08-04T08:50:25.601Z,29.31
2022-08-04T08:53:11.277Z,29.36
2022-08-04T08:55:50.788Z,29.42
2022-08-04T08:58:41.059Z,29.49
2022-08-04T09:01:18.464Z,29.55
2022-08-04T09:04:34.142Z,29.67
2022-08-04T09:07:27.442Z,29.72
2022-08-04T09:10:07.480Z,29.83
2022-08-04T09:12:42.784Z,30.02
2022-08-04T09:15:16.393Z,30.26
2022-08-04T09:17:52.015Z,30.60
2022-08-04T09:20:30.609Z,30.80
2022-08-04T09:23:10.241Z,30.99
2022-08-04T09:25:48.200Z,31.29
2022-08-04T09:28:50.749Z,31.85
2022-08-04T09:31:16.824Z,32.60
2022-08-04T09:33:52.294Z,33.06
2022-08-04T09:36:29.932Z,33.63
2022-08-04T09:39:09.755Z,34.15
2022-08-04T09:41:52.600Z,34.47
2022-08-04T09:44:50.974Z,34.88
2022-08-04T09:47:26.302Z,35.64
2022-08-04T09:50:23.688Z,35.89
2022-08-04T09:53:00.845Z,35.79
2022-08-04T09:55:53.890Z,35.61
2022-08-04T09:58:37.833Z,35.27
2022-08-04T10:01:10.386Z,35.11
2022-08-04T10:03:43.236Z,34.95
2022-08-04T10:06:35.529Z,34.83
2022-08-04T10:09:22.531Z,34.74
2022-08-04T10:12:02.227Z,34.65
2022-08-04T10:14:40.269Z,34.52
2022-08-04T10:17:24.594Z,34.63
2022-08-04T10:20:04.585Z,34.69
2022-08-04T10:22:55.475Z,34.75
2022-08-04T10:26:07.242Z,34.55
2022-08-04T10:28:31.872Z,34.36
2022-08-04T10:31:08.337Z,34.22
2022-08-04T10:33:44.396Z,34.17
2022-08-04T10:36:18.706Z,34.03
2022-08-04T10:38:53.904Z,33.86
2022-08-04T10:41:48.890Z,33.61
2022-08-04T10:44:26.584Z,33.43
2022-08-04T10:47:02.140Z,33.34
2022-08-04T10:49:36.883Z,33.24
2022-08-04T10:52:11.450Z,33.10
2022-08-04T10:54:49.151Z,33.00
2022-08-04T10:57:24.975Z,32.87
2022-08-04T11:00:03.316Z,32.78
2022-08-04T11:02:42.908Z,32.74
2022-08-04T11:05:25.775Z,32.73
2022-08-04T11:07:58.622Z,32.72
2022-08-04T11:10:32.663Z,32.71
2022-08-04T11:13:22.014Z,32.65
2022-08-04T11:15:59.443Z,32.59
2022-08-04T11:18:42.439Z,32.50
2022-08-04T11:21:16.801Z,32.46
2022-08-04T11:23:54.723Z,32.40
2022-08-04T11:26:30.831Z,32.33
2022-08-04T11:29:07.129Z,32.24
2022-08-04T11:31:48.441Z,32.16
2022-08-04T11:34:23.415Z,32.07
2022-08-04T11:37:01.624Z,31.98
2022-08-04T11:39:35.083Z,31.89
2022-08-04T11:42:11.826Z,31.82
2022-08-04T11:44:45.391Z,31.75
2022-08-04T11:47:23.475Z,31.57
2022-08-04T11:49:59.881Z,31.42
2022-08-04T11:52:30.046Z,31.31
2022-08-04T11:55:00.891Z,31.19
2022-08-04T11:57:36.048Z,31.13
2022-08-04T12:00:10.466Z,31.01
2022-08-04T12:03:13.451Z,31.00
2022-08-04T12:05:53.896Z,30.93
2022-08-04T12:08:34.333Z,30.89
2022-08-04T12:11:15.034Z,30.88
2022-08-04T12:13:51.689Z,30.94
2022-08-04T12:16:30.711Z,30.97
2022-08-04T12:19:01.172Z,30.89
2022-08-04T12:21:43.494Z,30.86
2022-08-04T12:24:21.600Z,30.82
2022-08-04T12:26:54.297Z,30.87
2022-08-04T12:29:25.649Z,30.89
2022-08-04T12:31:58.245Z,30.86
2022-08-04T12:34:40.523Z,30.72
2022-08-04T12:37:20.533Z,30.65
2022-08-04T12:40:29.369Z,30.74
2022-08-04T12:42:56.151Z,30.79
2022-08-04T12:45:29.798Z,30.71
2022-08-04T12:48:00.219Z,30.74
2022-08-04T12:50:29.437Z,30.66
2022-08-04T12:53:02.679Z,30.62
2022-08-04T12:55:35.192Z,30.72
2022-08-04T12:58:13.040Z,30.67
2022-08-04T13:00:42.434Z,30.66
2022-08-04T13:03:13.532Z,30.76
2022-08-04T13:05:43.554Z,30.85
2022-08-04T13:08:15.544Z,30.82
2022-08-04T13:10:47.170Z,30.73
2022-08-04T13:13:19.946Z,30.71
2022-08-04T13:16:00.400Z,30.71
2022-08-04T13:18:32.373Z,30.71
2022-08-04T13:21:23.012Z,30.74
2022-08-04T13:24:21.973Z,30.83
2022-08-04T13:27:05.163Z,30.85
2022-08-04T13:29:59.660Z,30.90
2022-08-04T13:32:27.755Z,30.94
2022-08-04T13:34:58.724Z,30.95
2022-08-04T13:37:33.299Z,30.98
2022-08-04T13:40:05.444Z,30.90
2022-08-04T13:42:36.179Z,30.87
2022-08-04T13:45:07.491Z,30.84
2022-08-04T13:47:40.578Z,30.82
2022-08-04T13:50:23.719Z,30.84
2022-08-04T13:52:54.329Z,30.83
2022-08-04T13:55:27.289Z,30.81
2022-08-04T13:58:00.708Z,30.82
2022-08-04T14:00:46.633Z,30.89
2022-08-04T14:03:24.774Z,30.90
2022-08-04T14:06:15.981Z,30.91
2022-08-04T14:08:52.900Z,30.84
2022-08-04T14:12:06.143Z,30.81
2022-08-04T14:14:24.012Z,30.81
2022-08-04T14:17:02.247Z,30.81
2022-08-04T14:19:48.789Z,30.71
2022-08-04T14:22:31.385Z,30.60
2022-08-04T14:25:00.751Z,30.54
2022-08-04T14:27:32.105Z,30.61
2022-08-04T14:30:00.713Z,30.55
2022-08-04T14:32:29.382Z,30.48
2022-08-04T14:34:58.042Z,30.34
2022-08-04T14:37:48.279Z,30.32
2022-08-04T14:40:30.748Z,30.18
2022-08-04T14:43:05.143Z,30.14
2022-08-04T14:45:37.069Z,30.08
2022-08-04T14:48:09.167Z,30.00
2022-08-04T14:50:40.312Z,30.04
2022-08-04T14:53:11.015Z,30.06
2022-08-04T14:55:40.791Z,30.03
2022-08-04T14:58:35.158Z,30.08
2022-08-04T15:01:10.102Z,29.98
2022-08-04T15:03:50.341Z,30.00
2022-08-04T15:06:24.010Z,29.89
2022-08-04T15:08:53.701Z,29.79
2022-08-04T15:11:24.254Z,29.78
2022-08-04T15:13:56.185Z,29.75
2022-08-04T15:16:26.127Z,29.78
2022-08-04T15:18:56.907Z,29.80
2022-08-04T15:21:29.032Z,29.74
2022-08-04T15:23:59.188Z,29.74
2022-08-04T15:26:35.116Z,29.68
2022-08-04T15:29:16.486Z,29.63
2022-08-04T15:32:05.337Z,29.57
2022-08-04T15:34:49.209Z,29.57
2022-08-04T15:37:20.614Z,29.54
2022-08-04T15:39:54.343Z,29.50
2022-08-04T15:42:31.866Z,29.53
2022-08-04T15:46:37.057Z,29.53
2022-08-04T15:48:30.869Z,29.51
2022-08-04T15:51:15.502Z,29.45
2022-08-04T15:54:30.807Z,29.45
2022-08-04T15:57:03.541Z,29.41
2022-08-04T15:59:58.527Z,29.36
2022-08-04T16:02:44.426Z,29.31
2022-08-04T16:05:36.977Z,29.29
2022-08-04T16:08:16.617Z,29.21
2022-08-04T16:10:50.645Z,29.21
2022-08-04T16:13:22.327Z,29.19
2022-08-04T16:15:53.297Z,29.18
2022-08-04T16:18:39.528Z,29.16
2022-08-04T16:21:19.047Z,29.18
2022-08-04T16:24:08.615Z,29.15
2022-08-04T16:26:46.164Z,29.17
2022-08-04T16:29:35.354Z,29.17
2022-08-04T16:32:11.984Z,29.18
2022-08-04T16:34:49.749Z,29.17
2022-08-04T16:37:25.882Z,29.18
2022-08-04T16:40:35.393Z,29.17
2022-08-04T16:43:07.923Z,29.17
2022-08-04T16:45:48.504Z,29.13
2022-08-04T16:48:18.403Z,29.10
2022-08-04T16:51:05.890Z,29.09
2022-08-04T16:53:57.899Z,29.05
2022-08-04T16:56:33.248Z,29.05
2022-08-04T16:59:09.520Z,29.07
2022-08-04T17:01:38.833Z,29.08
2022-08-04T17:04:07.989Z,29.04
2022-08-04T17:06:43.008Z,29.05
2022-08-04T17:09:14.476Z,29.04
2022-08-04T17:11:44.464Z,29.04
2022-08-04T17:14:13.516Z,29.04
2022-08-04T17:16:43.775Z,29.03
2022-08-04T17:19:23.633Z,28.97
2022-08-04T17:22:04.997Z,28.90
2022-08-04T17:24:35.813Z,28.89
2022-08-04T17:28:09.036Z,28.90
2022-08-04T17:29:53.241Z,28.88
2022-08-04T17:32:23.498Z,28.89
2022-08-04T17:34:55.017Z,28.86
2022-08-04T17:37:52.904Z,28.87
2022-08-04T17:40:18.281Z,28.87
2022-08-04T17:44:03.084Z,28.87
2022-08-04T17:46:28.178Z,28.88
2022-08-04T17:48:59.608Z,28.90
2022-08-04T17:52:05.606Z,28.90
2022-08-04T17:54:37.336Z,28.88
2022-08-04T17:57:21.084Z,28.86
2022-08-04T17:59:57.438Z,28.84
2022-08-04T18:02:32.645Z,28.81
2022-08-04T18:05:07.581Z,28.79
2022-08-04T18:08:35.247Z,28.77
2022-08-04T18:10:54.615Z,28.75
2022-08-04T18:13:27.047Z,28.71
2022-08-04T18:16:03.193Z,28.68
2022-08-04T18:18:40.623Z,28.62
2022-08-04T18:21:17.652Z,28.59
2022-08-04T18:23:51.041Z,28.56
2022-08-04T18:29:31.126Z,28.48
2022-08-04T18:31:58.480Z,28.44
2022-08-04T18:34:26.989Z,28.40
2022-08-04T18:36:59.310Z,28.37
2022-08-04T18:40:10.637Z,28.33
2022-08-04T18:42:31.703Z,28.28
2022-08-04T18:45:07.291Z,28.20
2022-08-04T18:47:54.386Z,28.18
2022-08-04T18:51:01.239Z,28.16
2022-08-04T18:53:13.626Z,28.17
2022-08-04T18:55:56.959Z,28.17
2022-08-04T18:58:28.195Z,28.15
2022-08-04T19:01:00.596Z,28.14
2022-08-04T19:03:30.575Z,28.14
2022-08-04T19:06:00.067Z,28.12
2022-08-04T19:08:33.413Z,28.12
2022-08-04T19:11:37.683Z,28.12
2022-08-04T19:13:58.139Z,28.11
2022-08-04T19:16:28.538Z,28.10
2022-08-04T19:18:57.403Z,28.10
2022-08-04T19:22:02.031Z,28.07
2022-08-04T19:24:31.614Z,28.02
2022-08-04T19:27:07.368Z,27.98
2022-08-04T19:29:40.681Z,27.98
2022-08-04T19:32:14.900Z,27.98
2022-08-04T19:34:47.097Z,28.00
2022-08-04T19:40:07.279Z,27.99
2022-08-04T19:42:37.972Z,28.00
2022-08-04T19:45:08.739Z,28.00
2022-08-04T19:48:16.234Z,27.99
2022-08-04T19:50:26.251Z,27.96
2022-08-04T19:52:55.064Z,27.95
2022-08-04T19:55:36.709Z,27.93
2022-08-04T19:58:07.397Z,27.94
2022-08-04T20:00:40.745Z,27.95
2022-08-04T20:03:20.299Z,27.95
2022-08-04T20:08:38.800Z,27.92
2022-08-04T20:11:18.891Z,27.90
2022-08-04T20:16:37.989Z,27.81
2022-08-04T20:19:10.612Z,27.80
2022-08-04T20:21:55.506Z,27.79
2022-08-04T20:24:38.645Z,27.75
2022-08-04T20:27:15.955Z,27.74
2022-08-04T20:29:49.154Z,27.74
2022-08-04T20:32:22.481Z,27.76
2022-08-04T20:34:52.181Z,27.80
2022-08-04T20:37:23.271Z,27.82
2022-08-04T20:39:55.615Z,27.82
2022-08-04T20:42:26.977Z,27.82
2022-08-04T20:44:56.924Z,27.81
2022-08-04T20:47:27.083Z,27.82
2022-08-04T20:50:04.897Z,27.81
2022-08-04T20:52:33.615Z,27.80
2022-08-04T20:55:03.078Z,27.79
2022-08-04T20:57:49.440Z,27.78
2022-08-04T21:00:30.050Z,27.74
2022-08-04T21:03:00.771Z,27.70
2022-08-04T21:05:31.500Z,27.69
2022-08-04T21:10:49.916Z,27.64
2022-08-04T21:13:18.432Z,27.61
2022-08-04T21:15:58.648Z,27.54
2022-08-04T21:18:29.621Z,27.52
2022-08-04T21:20:58.267Z,27.53
2022-08-04T21:23:26.832Z,27.50
2022-08-04T21:25:58.248Z,27.47
2022-08-04T21:28:26.732Z,27.46
2022-08-04T21:30:55.973Z,27.45
2022-08-04T21:33:49.012Z,27.43
2022-08-04T21:36:19.935Z,27.41
2022-08-04T21:38:51.420Z,27.39
2022-08-04T21:41:25.039Z,27.37
2022-08-04T21:43:56.484Z,27.34
2022-08-04T21:46:30.305Z,27.33
2022-08-04T21:49:00.130Z,27.30
2022-08-04T21:51:57.895Z,27.28
2022-08-04T21:54:22.382Z,27.24
2022-08-04T21:56:52.713Z,27.21
2022-08-04T21:59:23.663Z,27.17
2022-08-04T22:02:01.723Z,27.15
2022-08-04T22:04:31.122Z,27.14
2022-08-04T22:07:03.284Z,27.11
2022-08-04T22:09:38.924Z,27.08
2022-08-04T22:12:12.003Z,27.05
2022-08-04T22:14:41.856Z,27.03
2022-08-04T22:17:18.948Z,26.98
2022-08-04T22:19:55.852Z,26.95
2022-08-04T22:22:29.697Z,26.92
2022-08-04T22:25:06.245Z,26.90
2022-08-04T22:28:00.732Z,26.87
2022-08-04T22:30:36.379Z,26.83
2022-08-04T22:33:08.146Z,26.81
2022-08-04T22:35:49.009Z,26.78
2022-08-04T22:38:24.395Z,26.77
2022-08-04T22:41:07.738Z,26.73
2022-08-04T22:43:37.583Z,26.71
2022-08-04T22:46:08.193Z,26.70
2022-08-04T22:48:39.732Z,26.67
2022-08-04T22:51:12.891Z,26.66
2022-08-04T22:53:49.159Z,26.64
2022-08-04T22:56:21.549Z,26.62
2022-08-04T22:59:06.756Z,26.61
2022-08-04T23:01:59.985Z,26.59
2022-08-04T23:04:27.468Z,26.58
2022-08-04T23:06:55.901Z,26.57
2022-08-04T23:09:49.425Z,26.57
2022-08-04T23:12:24.308Z,26.55
2022-08-04T23:14:56.098Z,26.54
2022-08-04T23:17:25.078Z,26.54
2022-08-04T23:19:57.593Z,26.53
2022-08-04T23:22:37.121Z,26.51
2022-08-04T23:25:16.318Z,26.49
2022-08-04T23:27:50.500Z,26.46
2022-08-04T23:30:21.908Z,26.43
2022-08-04T23:32:58.640Z,26.40
2022-08-04T23:35:27.161Z,26.39
2022-08-04T23:37:57.919Z,26.35
2022-08-04T23:40:34.210Z,26.30
2022-08-04T23:43:17.558Z,26.25
2022-08-04T23:46:04.228Z,26.21
2022-08-04T23:48:36.424Z,26.17
2022-08-04T23:51:13.754Z,26.17
2022-08-04T23:54:03.244Z,26.14
2022-08-04T23:56:34.623Z,26.11
2022-08-04T23:59:03.913Z,26.07
